Time;durP1;ratioP1;P1;durP2;ratioP2;P2;SDS_P1;SDS_P2;PMS_P1;PMS_P2;Temp;Humidity;BMP_temperature;BMP_pressure;BME280_temperature;BME280_humidity;BME280_pressure;Samples;Min_cycle;Max_cycle;Signal;HPM_P1;HPM_P2
2023/08/13 00:00:59;;;;;;;;;;;21.20;84.90;;;;;;5097626;28;19919;-72
2023/08/13 00:03:24;;;;;;;;;;;21.20;84.90;;;;;;5097923;28;19953;-73
2023/08/13 00:05:50;;;;;;;;;;;21.20;84.90;;;;;;5098141;28;19908;-73
2023/08/13 00:08:15;;;;;;;;;;;21.20;84.90;;;;;;5097534;28;19919;-72
2023/08/13 00:10:41;;;;;;;;;;;21.20;84.90;;;;;;5097752;28;20343;-73
2023/08/13 00:13:07;;;;;;;;;;;21.20;84.90;;;;;;5097454;28;20000;-72
2023/08/13 00:15:32;;;;;;;;;;;21.20;84.90;;;;;;5097679;28;19908;-72
2023/08/13 00:17:58;;;;;;;;;;;21.20;84.80;;;;;;5097663;28;19908;-73
2023/08/13 00:20:24;;;;;;;;;;;21.20;84.90;;;;;;5097522;28;20006;-72
2023/08/13 00:22:49;;;;;;;;;;;21.20;84.90;;;;;;5097497;28;19973;-72
2023/08/13 00:25:15;;;;;;;;;;;21.20;84.90;;;;;;5097829;28;19923;-72
2023/08/13 00:27:40;;;;;;;;;;;21.20;84.90;;;;;;5096217;28;20070;-72
2023/08/13 00:30:06;;;;;;;;;;;21.20;84.90;;;;;;5097383;28;19919;-72
2023/08/13 00:32:31;;;;;;;;;;;21.20;85.00;;;;;;5097080;28;20378;-72
2023/08/13 00:34:57;;;;;;;;;;;21.20;84.90;;;;;;5097336;28;19915;-73
2023/08/13 00:37:22;;;;;;;;;;;21.20;84.80;;;;;;5097431;28;19934;-72
2023/08/13 00:39:48;;;;;;;;;;;21.20;84.90;;;;;;5096857;28;19961;-72
2023/08/13 00:42:13;;;;;;;;;;;21.20;84.80;;;;;;5097183;28;19966;-73
2023/08/13 00:44:38;;;;;;;;;;;21.20;84.80;;;;;;5097123;28;19920;-72
2023/08/13 00:47:04;;;;;;;;;;;21.20;85.30;;;;;;5096813;28;20366;-70
2023/08/13 00:49:30;;;;;;;;;;;21.20;84.90;;;;;;5096781;28;19931;-71
2023/08/13 00:51:56;;;;;;;;;;;21.20;84.80;;;;;;5096944;28;19915;-73
2023/08/13 00:54:21;;;;;;;;;;;21.20;84.80;;;;;;5096978;28;19915;-73
2023/08/13 00:56:48;;;;;;;;;;;21.30;84.90;;;;;;5096688;28;20017;-72
2023/08/13 00:59:14;;;;;;;;;;;21.20;84.80;;;;;;5096178;28;19916;-74
2023/08/13 01:01:39;;;;;;;;;;;21.30;84.90;;;;;;5096491;28;20386;-73
2023/08/13 01:04:05;;;;;;;;;;;21.20;84.80;;;;;;5096544;28;19909;-73
2023/08/13 01:06:42;;;;;;;;;;;21.30;84.90;;;;;;5096378;28;19915;-74
2023/08/13 01:09:13;;;;;;;;;;;21.30;84.90;;;;;;5096462;28;19916;-74
2023/08/13 01:11:47;;;;;;;;;;;21.20;84.80;;;;;;5096569;28;20045;-74
2023/08/13 01:14:16;;;;;;;;;;;21.30;84.90;;;;;;5096264;28;20270;-74
2023/08/13 01:16:42;;;;;;;;;;;21.30;84.90;;;;;;5096353;28;19908;-74
2023/08/13 01:19:11;;;;;;;;;;;21.20;84.80;;;;;;5096028;28;20049;-73
2023/08/13 01:21:36;;;;;;;;;;;21.30;84.90;;;;;;5096419;28;19950;-75
2023/08/13 01:24:02;;;;;;;;;;;21.30;84.90;;;;;;5096418;28;19908;-74
2023/08/13 01:26:29;;;;;;;;;;;21.30;84.90;;;;;;5096465;28;19961;-74
2023/08/13 01:29:03;;;;;;;;;;;21.30;84.90;;;;;;5096013;28;19908;-74
2023/08/13 01:31:30;;;;;;;;;;;21.30;84.90;;;;;;5096055;28;20359;-74
2023/08/13 01:33:56;;;;;;;;;;;21.30;84.90;;;;;;5095871;28;19908;-74
2023/08/13 01:36:23;;;;;;;;;;;21.30;84.90;;;;;;5096086;28;19911;-74
2023/08/13 01:38:48;;;;;;;;;;;21.30;84.90;;;;;;5096064;28;19919;-74
2023/08/13 01:41:14;;;;;;;;;;;21.30;84.90;;;;;;5096089;28;19912;-74
2023/08/13 01:43:39;;;;;;;;;;;21.30;84.80;;;;;;5095656;28;19961;-74
2023/08/13 01:46:05;;;;;;;;;;;21.30;84.90;;;;;;5096024;28;19962;-72
2023/08/13 01:48:30;;;;;;;;;;;21.30;84.90;;;;;;5095925;28;20378;-70
2023/08/13 01:50:56;;;;;;;;;;;21.30;84.90;;;;;;5095520;28;19999;-72
2023/08/13 01:53:21;;;;;;;;;;;21.30;84.90;;;;;;5095413;28;19915;-72
2023/08/13 01:55:47;;;;;;;;;;;21.30;84.90;;;;;;5095704;28;19915;-72
2023/08/13 01:58:12;;;;;;;;;;;21.30;84.90;;;;;;5095726;28;20041;-72
2023/08/13 02:00:37;;;;;;;;;;;21.30;84.90;;;;;;5095623;28;19916;-72
2023/08/13 02:03:03;;;;;;;;;;;21.30;84.90;;;;;;5094371;28;19908;-72
2023/08/13 02:05:29;;;;;;;;;;;21.30;84.90;;;;;;5095257;28;19978;-72
2023/08/13 02:07:54;;;;;;;;;;;21.30;84.90;;;;;;5095525;28;19908;-72
2023/08/13 02:10:20;;;;;;;;;;;21.30;84.90;;;;;;5094468;28;20359;-72
2023/08/13 02:12:45;;;;;;;;;;;21.30;84.90;;;;;;5095471;28;19915;-72
2023/08/13 02:15:10;;;;;;;;;;;21.30;84.90;;;;;;5095154;28;20432;-72
2023/08/13 02:17:36;;;;;;;;;;;21.30;84.90;;;;;;5094176;28;20010;-72
2023/08/13 02:20:02;;;;;;;;;;;21.30;84.80;;;;;;5095257;28;19912;-72
2023/08/13 02:22:27;;;;;;;;;;;21.30;84.90;;;;;;5095600;28;19999;-73
2023/08/13 02:24:53;;;;;;;;;;;21.30;84.90;;;;;;5094931;28;20373;-72
2023/08/13 02:27:18;;;;;;;;;;;21.30;84.80;;;;;;5094872;28;19915;-73
2023/08/13 02:29:44;;;;;;;;;;;21.30;84.80;;;;;;5094832;28;19908;-72
2023/08/13 02:32:09;;;;;;;;;;;21.30;84.90;;;;;;5095184;28;19908;-72
2023/08/13 02:34:42;;;;;;;;;;;21.30;84.90;;;;;;5094927;28;19908;-72
2023/08/13 02:37:07;;;;;;;;;;;21.30;84.90;;;;;;5094656;28;19931;-72
2023/08/13 02:39:32;;;;;;;;;;;21.30;84.90;;;;;;5094895;28;20429;-73
2023/08/13 02:41:58;;;;;;;;;;;21.30;84.90;;;;;;5094662;28;19912;-74
2023/08/13 02:44:25;;;;;;;;;;;21.30;84.90;;;;;;5094660;28;19908;-74
2023/08/13 02:46:50;;;;;;;;;;;21.30;84.90;;;;;;5094555;28;20355;-73
2023/08/13 02:49:16;;;;;;;;;;;21.30;84.80;;;;;;5094563;28;19918;-73
2023/08/13 02:51:41;;;;;;;;;;;21.30;84.90;;;;;;5094966;28;20255;-74
2023/08/13 02:54:06;;;;;;;;;;;21.30;84.90;;;;;;5094743;28;19911;-74
2023/08/13 02:56:32;;;;;;;;;;;21.30;84.90;;;;;;5093366;28;20252;-73
2023/08/13 02:58:57;;;;;;;;;;;21.30;84.90;;;;;;5093210;28;20128;-74
2023/08/13 03:01:23;;;;;;;;;;;21.30;84.90;;;;;;5094356;28;19912;-74
2023/08/13 03:03:49;;;;;;;;;;;21.30;84.90;;;;;;5094266;28;20422;-74
2023/08/13 03:06:14;;;;;;;;;;;21.30;84.90;;;;;;5093309;28;20007;-74
2023/08/13 03:08:40;;;;;;;;;;;21.30;84.90;;;;;;5094230;28;19908;-74
2023/08/13 03:11:05;;;;;;;;;;;21.30;84.80;;;;;;5094204;28;19909;-74
2023/08/13 03:13:31;;;;;;;;;;;21.30;84.90;;;;;;5094005;28;20003;-74
2023/08/13 03:15:56;;;;;;;;;;;21.30;84.90;;;;;;5094441;28;19912;-74
2023/08/13 03:18:22;;;;;;;;;;;21.40;84.90;;;;;;5094057;28;19908;-74
2023/08/13 03:20:47;;;;;;;;;;;21.30;84.90;;;;;;5094048;28;19971;-74
2023/08/13 03:23:13;;;;;;;;;;;21.30;84.90;;;;;;5094049;28;19955;-74
2023/08/13 03:25:38;;;;;;;;;;;21.40;84.90;;;;;;5094273;28;19908;-74
2023/08/13 03:28:04;;;;;;;;;;;21.40;84.90;;;;;;5094159;28;20019;-74
2023/08/13 03:30:29;;;;;;;;;;;21.30;84.90;;;;;;5094040;28;19912;-75
2023/08/13 03:32:55;;;;;;;;;;;21.40;85.40;;;;;;5093859;28;19909;-74
2023/08/13 03:35:20;;;;;;;;;;;21.40;84.90;;;;;;5094140;28;19908;-74
2023/08/13 03:37:46;;;;;;;;;;;21.40;84.90;;;;;;5093274;28;19961;-74
2023/08/13 03:40:11;;;;;;;;;;;21.40;84.90;;;;;;5094197;28;19912;-74
2023/08/13 03:42:37;;;;;;;;;;;21.40;85.00;;;;;;5094013;28;20332;-74
2023/08/13 03:45:03;;;;;;;;;;;21.30;84.90;;;;;;5093811;28;19920;-68
2023/08/13 03:47:28;;;;;;;;;;;21.40;85.00;;;;;;5093697;28;19908;-74
2023/08/13 03:49:54;;;;;;;;;;;21.40;85.00;;;;;;5093930;28;19908;-73
2023/08/13 03:52:19;;;;;;;;;;;21.40;85.00;;;;;;5093697;28;19908;-74
2023/08/13 03:54:45;;;;;;;;;;;21.40;85.00;;;;;;5093690;28;20362;-73
2023/08/13 03:57:10;;;;;;;;;;;21.40;85.00;;;;;;5093939;28;19908;-73
2023/08/13 03:59:35;;;;;;;;;;;21.40;85.00;;;;;;5093973;28;19916;-74
2023/08/13 04:02:01;;;;;;;;;;;21.40;85.00;;;;;;5092624;28;19912;-74
2023/08/13 04:04:27;;;;;;;;;;;21.40;85.00;;;;;;5093540;28;19916;-74
2023/08/13 04:06:52;;;;;;;;;;;21.40;85.00;;;;;;5093852;28;19908;-74
2023/08/13 04:09:17;;;;;;;;;;;21.40;85.00;;;;;;5093793;28;19963;-74
2023/08/13 04:11:43;;;;;;;;;;;21.40;85.00;;;;;;5093527;28;19909;-73
2023/08/13 04:14:09;;;;;;;;;;;21.40;85.00;;;;;;5093511;28;20298;-72
2023/08/13 04:16:34;;;;;;;;;;;21.40;85.00;;;;;;5093614;28;19951;-73
2023/08/13 04:19:00;;;;;;;;;;;21.40;85.00;;;;;;5093774;28;19912;-73
2023/08/13 04:21:25;;;;;;;;;;;21.40;85.00;;;;;;5093786;28;19919;-74
2023/08/13 04:23:54;;;;;;;;;;;21.40;85.00;;;;;;5093458;28;19977;-73
2023/08/13 04:26:19;;;;;;;;;;;21.40;85.00;;;;;;5093415;28;19912;-73
2023/08/13 04:28:45;;;;;;;;;;;21.40;85.00;;;;;;5093346;28;19916;-73
2023/08/13 04:31:10;;;;;;;;;;;21.40;85.00;;;;;;5093338;28;19915;-74
2023/08/13 04:33:36;;;;;;;;;;;21.40;85.00;;;;;;5095130;28;19912;-73
2023/08/13 04:36:01;;;;;;;;;;;21.40;85.00;;;;;;5097288;28;19908;-74
2023/08/13 04:38:27;;;;;;;;;;;21.40;85.00;;;;;;5097065;28;19908;-73
2023/08/13 04:40:52;;;;;;;;;;;21.40;85.00;;;;;;5097156;28;19916;-72
2023/08/13 04:43:18;;;;;;;;;;;21.40;85.00;;;;;;5097834;28;19908;-74
2023/08/13 04:45:46;;;;;;;;;;;21.40;85.00;;;;;;5096989;28;19920;-73
2023/08/13 04:48:12;;;;;;;;;;;21.40;85.10;;;;;;5097101;28;19908;-74
2023/08/13 04:50:40;;;;;;;;;;;21.40;85.10;;;;;;5096315;28;20529;-73
2023/08/13 04:53:05;;;;;;;;;;;21.40;85.10;;;;;;5096931;28;20415;-73
2023/08/13 04:55:31;;;;;;;;;;;21.40;85.10;;;;;;5096937;28;19909;-74
2023/08/13 04:57:56;;;;;;;;;;;21.40;85.10;;;;;;5097233;28;20007;-74
2023/08/13 05:00:22;;;;;;;;;;;21.40;85.10;;;;;;5096508;28;20344;-74
2023/08/13 05:02:47;;;;;;;;;;;21.40;85.10;;;;;;5096841;28;19951;-74
2023/08/13 05:05:13;;;;;;;;;;;21.40;85.10;;;;;;5096453;28;20003;-74
2023/08/13 05:07:38;;;;;;;;;;;21.40;85.10;;;;;;5096414;28;19908;-74
2023/08/13 05:10:04;;;;;;;;;;;21.40;85.10;;;;;;5097041;28;20431;-74
2023/08/13 05:12:29;;;;;;;;;;;21.40;85.10;;;;;;5096242;28;19931;-73
2023/08/13 05:14:55;;;;;;;;;;;21.40;85.10;;;;;;5096204;28;20003;-73
2023/08/13 05:17:21;;;;;;;;;;;21.40;85.10;;;;;;5096458;28;19908;-74
2023/08/13 05:19:46;;;;;;;;;;;21.40;85.10;;;;;;5096303;28;19916;-74
2023/08/13 05:22:12;;;;;;;;;;;21.40;85.10;;;;;;5096394;28;20430;-75
2023/08/13 05:24:37;;;;;;;;;;;21.40;85.10;;;;;;5096028;28;20259;-74
2023/08/13 05:27:03;;;;;;;;;;;21.40;85.10;;;;;;5096334;28;19931;-74
2023/08/13 05:29:28;;;;;;;;;;;21.40;85.10;;;;;;5096157;28;19958;-74
2023/08/13 05:31:54;;;;;;;;;;;21.40;85.10;;;;;;5096142;28;20006;-74
2023/08/13 05:34:19;;;;;;;;;;;21.40;85.10;;;;;;5095920;28;19909;-73
2023/08/13 05:36:45;;;;;;;;;;;21.50;85.20;;;;;;5095830;28;20407;-73
2023/08/13 05:39:10;;;;;;;;;;;21.50;85.20;;;;;;5095731;28;19912;-74
2023/08/13 05:41:36;;;;;;;;;;;21.50;85.20;;;;;;5096051;28;19998;-73
2023/08/13 05:44:02;;;;;;;;;;;21.50;85.20;;;;;;5095896;28;20440;-73
2023/08/13 05:46:27;;;;;;;;;;;21.40;85.20;;;;;;5095083;28;20390;-73
2023/08/13 05:48:53;;;;;;;;;;;21.50;85.20;;;;;;5094632;28;19912;-73
2023/08/13 05:51:18;;;;;;;;;;;21.50;85.40;;;;;;5095749;28;20410;-73
2023/08/13 05:53:44;;;;;;;;;;;21.50;85.20;;;;;;5095435;28;19931;-73
2023/08/13 05:56:09;;;;;;;;;;;21.50;85.20;;;;;;5095677;28;19940;-74
2023/08/13 05:58:35;;;;;;;;;;;21.50;85.20;;;;;;5095686;28;19908;-73
2023/08/13 06:01:00;;;;;;;;;;;21.40;85.10;;;;;;5095382;28;19919;-73
2023/08/13 06:03:26;;;;;;;;;;;21.50;85.20;;;;;;5095237;28;19955;-74
2023/08/13 06:05:51;;;;;;;;;;;21.50;85.20;;;;;;5095114;28;19908;-74
2023/08/13 06:08:17;;;;;;;;;;;21.40;85.20;;;;;;5095282;28;19953;-74
2023/08/13 06:10:43;;;;;;;;;;;21.50;85.20;;;;;;5095476;28;19915;-73
2023/08/13 06:13:09;;;;;;;;;;;21.50;85.20;;;;;;5095398;28;20293;-73
2023/08/13 06:15:34;;;;;;;;;;;21.50;85.20;;;;;;5095309;28;19909;-74
2023/08/13 06:17:59;;;;;;;;;;;21.50;85.20;;;;;;5095245;28;19908;-74
2023/08/13 06:20:25;;;;;;;;;;;21.50;85.20;;;;;;5095207;28;19965;-74
2023/08/13 06:22:50;;;;;;;;;;;21.50;85.20;;;;;;5095197;28;20340;-74
2023/08/13 06:25:16;;;;;;;;;;;21.50;85.20;;;;;;5094954;28;20346;-74
2023/08/13 06:27:41;;;;;;;;;;;21.50;85.20;;;;;;5095181;28;19909;-73
2023/08/13 06:30:07;;;;;;;;;;;21.50;85.70;;;;;;5094983;28;19953;-72
2023/08/13 06:32:33;;;;;;;;;;;21.50;85.20;;;;;;5094747;28;20006;-73
2023/08/13 06:34:59;;;;;;;;;;;21.50;85.20;;;;;;5094775;28;19962;-73
2023/08/13 06:37:24;;;;;;;;;;;21.50;85.20;;;;;;5095292;28;19908;-73
2023/08/13 06:39:49;;;;;;;;;;;21.50;85.20;;;;;;5094632;28;19912;-73
2023/08/13 06:42:16;;;;;;;;;;;21.50;85.20;;;;;;5094883;28;20384;-74
2023/08/13 06:44:42;;;;;;;;;;;21.50;85.20;;;;;;5094692;28;20019;-73
2023/08/13 06:47:08;;;;;;;;;;;21.50;85.20;;;;;;5094664;28;20006;-72
2023/08/13 06:49:33;;;;;;;;;;;21.50;85.20;;;;;;5095043;28;20399;-73
2023/08/13 06:51:59;;;;;;;;;;;21.50;85.20;;;;;;5093422;28;19908;-73
2023/08/13 06:54:24;;;;;;;;;;;21.50;85.20;;;;;;5094503;28;20400;-73
2023/08/13 06:56:50;;;;;;;;;;;21.50;85.20;;;;;;5094914;28;19908;-73
2023/08/13 06:59:15;;;;;;;;;;;21.50;85.20;;;;;;5094253;28;19912;-73
2023/08/13 07:01:41;;;;;;;;;;;21.50;85.20;;;;;;5093270;28;19963;-73
2023/08/13 07:04:06;;;;;;;;;;;21.50;85.20;;;;;;5094462;28;19912;-70
2023/08/13 07:06:32;;;;;;;;;;;21.50;85.20;;;;;;5094484;28;19912;-73
2023/08/13 07:08:57;;;;;;;;;;;21.50;85.20;;;;;;5094192;28;19958;-73
2023/08/13 07:11:23;;;;;;;;;;;21.50;85.20;;;;;;5094351;28;19908;-73
2023/08/13 07:13:52;;;;;;;;;;;21.50;85.20;;;;;;5094399;28;19908;-73
2023/08/13 07:16:17;;;;;;;;;;;21.50;85.20;;;;;;5094128;28;19948;-73
2023/08/13 07:18:43;;;;;;;;;;;21.50;85.20;;;;;;5093956;28;19908;-73
2023/08/13 07:21:09;;;;;;;;;;;21.50;85.20;;;;;;5094356;28;20014;-72
2023/08/13 07:23:35;;;;;;;;;;;21.50;85.20;;;;;;5094254;28;20037;-73
2023/08/13 07:26:01;;;;;;;;;;;21.60;85.30;;;;;;5093844;28;19962;-73
2023/08/13 07:28:26;;;;;;;;;;;21.50;85.20;;;;;;5094123;28;19912;-72
2023/08/13 07:30:52;;;;;;;;;;;21.60;85.30;;;;;;5093984;28;20404;-72
2023/08/13 07:33:17;;;;;;;;;;;21.50;85.20;;;;;;5093864;28;19912;-72
2023/08/13 07:35:42;;;;;;;;;;;21.50;85.20;;;;;;5094164;28;19959;-72
2023/08/13 07:38:08;;;;;;;;;;;21.60;85.30;;;;;;5093725;28;20282;-72
2023/08/13 07:40:34;;;;;;;;;;;21.60;85.30;;;;;;5094022;28;19952;-73
2023/08/13 07:43:00;;;;;;;;;;;21.60;85.30;;;;;;5094208;28;19966;-73
2023/08/13 07:45:26;;;;;;;;;;;21.60;85.30;;;;;;5094028;28;19920;-72
2023/08/13 07:47:52;;;;;;;;;;;21.60;85.30;;;;;;5093906;28;19916;-72
2023/08/13 07:50:17;;;;;;;;;;;21.50;85.20;;;;;;5094036;28;19908;-72
2023/08/13 07:52:43;;;;;;;;;;;21.60;85.30;;;;;;5093961;28;19953;-72
2023/08/13 07:55:08;;;;;;;;;;;21.50;85.30;;;;;;5092579;28;19956;-72
2023/08/13 07:57:34;;;;;;;;;;;21.60;85.30;;;;;;5093929;28;19908;-72
2023/08/13 07:59:59;;;;;;;;;;;21.60;85.40;;;;;;5092562;28;19934;-72
2023/08/13 08:02:25;;;;;;;;;;;21.60;85.30;;;;;;5094122;28;19912;-72
2023/08/13 08:04:50;;;;;;;;;;;21.60;85.30;;;;;;5093777;28;19908;-73
2023/08/13 08:07:17;;;;;;;;;;;21.60;85.30;;;;;;5093412;28;20390;-72
2023/08/13 08:09:42;;;;;;;;;;;21.60;85.40;;;;;;5096669;28;20381;-72
2023/08/13 08:12:08;;;;;;;;;;;21.60;85.30;;;;;;5097683;28;19908;-71
2023/08/13 08:14:33;;;;;;;;;;;21.60;85.40;;;;;;5097141;28;20270;-72
2023/08/13 08:17:04;;;;;;;;;;;21.60;85.40;;;;;;5097284;28;19909;-72
2023/08/13 08:19:30;;;;;;;;;;;21.60;85.40;;;;;;5097469;28;19912;-72
2023/08/13 08:21:56;;;;;;;;;;;21.60;85.40;;;;;;5097452;28;19912;-72
2023/08/13 08:24:22;;;;;;;;;;;21.60;85.50;;;;;;5097408;28;19909;-72
2023/08/13 08:26:47;;;;;;;;;;;21.60;85.50;;;;;;5097137;28;20386;-72
2023/08/13 08:29:13;;;;;;;;;;;21.60;85.50;;;;;;5096940;28;20006;-72
2023/08/13 08:31:38;;;;;;;;;;;21.60;85.50;;;;;;5097192;28;19916;-70
2023/08/13 08:34:04;;;;;;;;;;;21.60;85.50;;;;;;5096955;28;20363;-73
2023/08/13 08:36:29;;;;;;;;;;;21.60;85.50;;;;;;5097162;28;19935;-72
2023/08/13 08:38:55;;;;;;;;;;;21.60;85.50;;;;;;5096819;28;19935;-74
2023/08/13 08:41:20;;;;;;;;;;;21.60;85.50;;;;;;5095798;28;20006;-73
2023/08/13 08:43:46;;;;;;;;;;;21.60;85.50;;;;;;5097130;28;20363;-73
2023/08/13 08:46:12;;;;;;;;;;;21.60;85.50;;;;;;5097307;28;19920;-72
2023/08/13 08:48:39;;;;;;;;;;;21.60;85.50;;;;;;5097366;28;19912;-73
2023/08/13 08:51:04;;;;;;;;;;;21.60;85.50;;;;;;5096679;28;19908;-72
2023/08/13 08:53:30;;;;;;;;;;;21.60;85.50;;;;;;5096845;28;20274;-71
2023/08/13 08:55:56;;;;;;;;;;;21.60;85.50;;;;;;5096759;28;19915;-71
2023/08/13 08:58:22;;;;;;;;;;;21.60;85.50;;;;;;5096708;28;19973;-72
2023/08/13 09:00:48;;;;;;;;;;;21.60;85.50;;;;;;5096624;28;19912;-72
2023/08/13 09:03:13;;;;;;;;;;;21.60;85.50;;;;;;5096422;28;19913;-72
2023/08/13 09:05:39;;;;;;;;;;;21.60;85.50;;;;;;5096419;28;19915;-72
2023/08/13 09:08:05;;;;;;;;;;;21.60;85.50;;;;;;5096444;28;20367;-72
2023/08/13 09:10:34;;;;;;;;;;;21.60;85.50;;;;;;5096578;28;19908;-72
2023/08/13 09:12:59;;;;;;;;;;;21.60;85.50;;;;;;5096459;28;19908;-72
2023/08/13 09:15:25;;;;;;;;;;;21.60;85.60;;;;;;5096455;28;20270;-72
2023/08/13 09:17:50;;;;;;;;;;;21.70;85.60;;;;;;5096377;28;19955;-71
2023/08/13 09:20:17;;;;;;;;;;;21.60;85.50;;;;;;5096267;28;20023;-71
2023/08/13 09:22:44;;;;;;;;;;;21.60;85.60;;;;;;5096217;28;19947;-71
2023/08/13 09:25:09;;;;;;;;;;;21.70;85.60;;;;;;5096332;28;20007;-72
2023/08/13 09:27:35;;;;;;;;;;;21.70;85.60;;;;;;5096179;28;20350;-72
2023/08/13 09:30:00;;;;;;;;;;;21.60;85.60;;;;;;5095951;28;20004;-72
2023/08/13 09:32:27;;;;;;;;;;;21.70;85.60;;;;;;5096110;28;19912;-72
2023/08/13 09:34:52;;;;;;;;;;;21.70;85.60;;;;;;5095898;28;20003;-72
2023/08/13 09:37:18;;;;;;;;;;;21.70;85.70;;;;;;5095710;28;20326;-72
2023/08/13 09:39:43;;;;;;;;;;;21.70;85.70;;;;;;5095693;28;19982;-72
2023/08/13 09:42:09;;;;;;;;;;;21.70;85.70;;;;;;5094654;28;20282;-72
2023/08/13 09:44:35;;;;;;;;;;;21.70;85.70;;;;;;5095690;28;19920;-72
2023/08/13 09:47:01;;;;;;;;;;;21.70;85.70;;;;;;5095878;28;19908;-72
2023/08/13 09:49:28;;;;;;;;;;;21.70;85.70;;;;;;5095886;28;19919;-72
2023/08/13 09:51:54;;;;;;;;;;;21.70;85.80;;;;;;5095552;28;19909;-72
2023/08/13 09:54:26;;;;;;;;;;;21.70;85.80;;;;;;5095707;28;19916;-73
2023/08/13 09:56:57;;;;;;;;;;;21.70;85.80;;;;;;5095361;28;19999;-72
2023/08/13 09:59:23;;;;;;;;;;;21.70;85.80;;;;;;5095398;28;19918;-72
2023/08/13 10:01:49;;;;;;;;;;;21.70;85.80;;;;;;5095378;28;20009;-72
2023/08/13 10:04:15;;;;;;;;;;;21.70;85.80;;;;;;5095545;28;19908;-72
2023/08/13 10:06:41;;;;;;;;;;;21.70;85.80;;;;;;5095788;28;19915;-71
2023/08/13 10:09:07;;;;;;;;;;;21.70;85.80;;;;;;5095471;28;19912;-72
2023/08/13 10:11:32;;;;;;;;;;;21.70;85.80;;;;;;5095102;28;20432;-72
2023/08/13 10:13:58;;;;;;;;;;;21.70;85.80;;;;;;5095012;28;19999;-72
2023/08/13 10:16:24;;;;;;;;;;;21.70;85.80;;;;;;5095400;28;19942;-71
2023/08/13 10:18:49;;;;;;;;;;;21.70;85.80;;;;;;5095219;28;19908;-72
2023/08/13 10:21:15;;;;;;;;;;;21.70;85.80;;;;;;5095573;28;19916;-72
2023/08/13 10:23:40;;;;;;;;;;;21.70;85.80;;;;;;5095403;28;19908;-71
2023/08/13 10:26:07;;;;;;;;;;;21.70;85.80;;;;;;5095418;28;19916;-71
2023/08/13 10:28:33;;;;;;;;;;;21.70;85.90;;;;;;5095379;28;19908;-70
2023/08/13 10:31:17;;;;;;;;;;;21.70;85.90;;;;;;5094380;28;19914;-72
2023/08/13 10:33:44;;;;;;;;;;;21.70;86.00;;;;;;5095091;28;20014;-70
2023/08/13 10:36:09;;;;;;;;;;;21.70;86.00;;;;;;5094618;28;20283;-72
2023/08/13 10:38:38;;;;;;;;;;;21.70;86.00;;;;;;5094610;28;19916;-71
2023/08/13 10:41:04;;;;;;;;;;;21.70;86.00;;;;;;5094391;28;20385;-72
2023/08/13 10:43:30;;;;;;;;;;;21.70;86.00;;;;;;5094258;28;19912;-71
2023/08/13 10:45:55;;;;;;;;;;;21.70;86.00;;;;;;5094578;28;19920;-71
2023/08/13 10:48:28;;;;;;;;;;;21.70;86.00;;;;;;5094697;28;19908;-70
2023/08/13 10:50:57;;;;;;;;;;;21.70;86.00;;;;;;5094445;28;19915;-71
2023/08/13 10:53:25;;;;;;;;;;;21.70;86.10;;;;;;5094658;28;19915;-71
2023/08/13 10:55:55;;;;;;;;;;;21.70;86.10;;;;;;5094526;28;19908;-72
2023/08/13 10:58:36;;;;;;;;;;;21.70;86.10;;;;;;5094271;28;19915;-72
2023/08/13 11:01:16;;;;;;;;;;;21.70;86.00;;;;;;5094421;28;20306;-72
2023/08/13 11:03:43;;;;;;;;;;;21.70;86.00;;;;;;5094464;28;19908;-70
2023/08/13 11:06:09;;;;;;;;;;;21.70;86.10;;;;;;5094344;28;19908;-71
2023/08/13 11:08:36;;;;;;;;;;;21.80;86.20;;;;;;5094264;28;19908;-70
2023/08/13 11:11:02;;;;;;;;;;;21.70;86.20;;;;;;5093153;28;19908;-72
2023/08/13 11:13:29;;;;;;;;;;;21.70;86.10;;;;;;5094317;28;19909;-71
2023/08/13 11:15:54;;;;;;;;;;;21.80;86.20;;;;;;5094495;28;19909;-70
2023/08/13 11:18:21;;;;;;;;;;;21.80;86.20;;;;;;5094343;28;19931;-73
2023/08/13 11:20:46;;;;;;;;;;;21.80;86.20;;;;;;5093873;28;19966;-72
2023/08/13 11:23:13;;;;;;;;;;;21.70;86.20;;;;;;5094152;28;19916;-70
2023/08/13 11:25:39;;;;;;;;;;;21.80;86.30;;;;;;5093884;28;19908;-70
2023/08/13 11:28:04;;;;;;;;;;;21.80;86.30;;;;;;5094036;28;19916;-72
2023/08/13 11:30:30;;;;;;;;;;;21.80;86.30;;;;;;5094162;28;19912;-71
2023/08/13 11:32:55;;;;;;;;;;;21.80;86.30;;;;;;5093646;28;19908;-71
2023/08/13 11:35:21;;;;;;;;;;;21.80;86.30;;;;;;5093829;28;19908;-70
2023/08/13 11:37:46;;;;;;;;;;;21.80;86.30;;;;;;5093766;28;19951;-69
2023/08/13 11:40:13;;;;;;;;;;;21.80;86.30;;;;;;5094087;28;19935;-71
2023/08/13 11:42:50;;;;;;;;;;;21.80;86.30;;;;;;5093724;28;19912;-72
2023/08/13 11:45:16;;;;;;;;;;;21.80;86.40;;;;;;5097839;28;19920;-71
2023/08/13 11:47:41;;;;;;;;;;;21.80;86.40;;;;;;5097897;28;20385;-72
2023/08/13 11:50:16;;;;;;;;;;;21.80;86.40;;;;;;5097597;28;19915;-71
2023/08/13 11:52:42;;;;;;;;;;;21.80;86.40;;;;;;5098242;28;19908;-71
2023/08/13 11:55:07;;;;;;;;;;;21.80;86.40;;;;;;5098055;28;19914;-71
2023/08/13 11:57:33;;;;;;;;;;;21.80;86.40;;;;;;5097897;28;19915;-72
2023/08/13 11:59:58;;;;;;;;;;;21.80;86.40;;;;;;5097752;28;19966;-71
2023/08/13 12:02:25;;;;;;;;;;;21.80;86.50;;;;;;5097658;28;20286;-71
2023/08/13 12:04:50;;;;;;;;;;;21.80;86.50;;;;;;5097661;28;19916;-71
2023/08/13 12:07:16;;;;;;;;;;;21.80;86.50;;;;;;5097770;28;19912;-72
2023/08/13 12:09:42;;;;;;;;;;;21.80;86.60;;;;;;5097594;28;19955;-70
2023/08/13 12:12:07;;;;;;;;;;;21.80;86.60;;;;;;5097693;28;19934;-70
2023/08/13 12:14:40;;;;;;;;;;;21.80;86.60;;;;;;5097642;28;19908;-69
2023/08/13 12:17:06;;;;;;;;;;;21.80;86.60;;;;;;5097191;28;19926;-71
2023/08/13 12:19:31;;;;;;;;;;;21.80;86.60;;;;;;5097174;28;19935;-71
2023/08/13 12:21:57;;;;;;;;;;;21.80;86.60;;;;;;5097451;28;20049;-71
2023/08/13 12:24:22;;;;;;;;;;;21.80;86.60;;;;;;5097118;28;19950;-71
2023/08/13 12:26:48;;;;;;;;;;;21.80;86.60;;;;;;5097080;28;19908;-70
2023/08/13 12:29:13;;;;;;;;;;;21.80;86.60;;;;;;5096967;28;19909;-69
2023/08/13 12:31:39;;;;;;;;;;;21.80;86.60;;;;;;5097679;28;20298;-70
2023/08/13 12:34:04;;;;;;;;;;;21.80;86.60;;;;;;5097321;28;19908;-69
2023/08/13 12:36:30;;;;;;;;;;;21.80;86.60;;;;;;5097209;28;20282;-70
2023/08/13 12:38:55;;;;;;;;;;;21.80;86.60;;;;;;5097132;28;19943;-69
2023/08/13 12:41:20;;;;;;;;;;;21.80;86.60;;;;;;5096964;28;19966;-73
2023/08/13 12:43:47;;;;;;;;;;;21.80;86.60;;;;;;5097081;28;19912;-72
2023/08/13 12:46:13;;;;;;;;;;;21.80;86.70;;;;;;5097366;28;19966;-73
2023/08/13 12:48:40;;;;;;;;;;;21.80;86.70;;;;;;5097248;28;19908;-72
2023/08/13 12:51:05;;;;;;;;;;;21.80;86.70;;;;;;5097215;28;19908;-72
2023/08/13 12:53:31;;;;;;;;;;;21.80;86.70;;;;;;5096940;28;20266;-73
2023/08/13 12:56:04;;;;;;;;;;;21.90;86.80;;;;;;5096389;28;19970;-73
2023/08/13 12:58:30;;;;;;;;;;;21.80;86.70;;;;;;5096954;28;19960;-73
2023/08/13 13:00:55;;;;;;;;;;;21.90;86.80;;;;;;5096313;28;19934;-74
2023/08/13 13:03:21;;;;;;;;;;;21.80;86.80;;;;;;5096708;28;20426;-73
2023/08/13 13:05:47;;;;;;;;;;;21.90;86.80;;;;;;5096824;28;19912;-72
2023/08/13 13:08:12;;;;;;;;;;;21.90;86.80;;;;;;5096399;28;19908;-72
2023/08/13 13:10:38;;;;;;;;;;;21.90;86.80;;;;;;5095160;28;19912;-73
2023/08/13 13:13:03;;;;;;;;;;;21.90;87.40;;;;;;5096408;28;19909;-73
2023/08/13 13:15:29;;;;;;;;;;;21.90;86.90;;;;;;5096717;28;19908;-71
2023/08/13 13:17:54;;;;;;;;;;;21.90;86.80;;;;;;5096203;28;19908;-71
2023/08/13 13:20:22;;;;;;;;;;;21.90;86.80;;;;;;5096552;28;19912;-72
2023/08/13 13:22:48;;;;;;;;;;;21.90;86.90;;;;;;5095345;28;19912;-72
2023/08/13 13:25:13;;;;;;;;;;;21.90;86.90;;;;;;5096568;28;19950;-74
2023/08/13 13:27:40;;;;;;;;;;;21.90;86.90;;;;;;5095111;28;20243;-73
2023/08/13 13:30:06;;;;;;;;;;;21.90;86.80;;;;;;5096143;28;19908;-72
2023/08/13 13:32:35;;;;;;;;;;;21.90;86.90;;;;;;5096424;28;20370;-72
2023/08/13 13:35:02;;;;;;;;;;;21.90;86.90;;;;;;5096106;28;19915;-71
2023/08/13 13:37:28;;;;;;;;;;;21.90;87.00;;;;;;5095949;28;20285;-72
2023/08/13 13:39:53;;;;;;;;;;;21.90;86.90;;;;;;5096091;28;19912;-71
2023/08/13 13:42:19;;;;;;;;;;;21.90;87.00;;;;;;5096046;28;19912;-71
2023/08/13 13:44:44;;;;;;;;;;;21.90;87.00;;;;;;5095847;28;19920;-71
2023/08/13 13:47:09;;;;;;;;;;;21.90;87.00;;;;;;5095732;28;19915;-72
2023/08/13 13:49:35;;;;;;;;;;;21.90;87.00;;;;;;5094794;28;20359;-71
2023/08/13 13:52:00;;;;;;;;;;;21.90;87.00;;;;;;5095969;28;19908;-72
2023/08/13 13:54:27;;;;;;;;;;;21.90;87.00;;;;;;5095778;28;19963;-71
2023/08/13 13:56:53;;;;;;;;;;;21.90;87.10;;;;;;5095763;28;19976;-70
2023/08/13 13:59:19;;;;;;;;;;;21.90;87.10;;;;;;5095662;28;20407;-72
2023/08/13 14:01:46;;;;;;;;;;;21.90;87.10;;;;;;5096004;28;19912;-73
2023/08/13 14:04:12;;;;;;;;;;;21.90;87.10;;;;;;5095267;28;20376;-72
2023/08/13 14:06:37;;;;;;;;;;;21.90;87.20;;;;;;5094725;28;19908;-71
2023/08/13 14:09:03;;;;;;;;;;;21.90;87.20;;;;;;5095861;28;20355;-72